Latest Weather Observations for Fawkner Beacon

IDV60901

Issued at 2:11 am EST Monday 12 April 2021 (issued every 10 minutes, with the page automatically refreshed every 10 minutes)

About weather observations | Map of Melbourne area stations | Latest observations for Melbourne area | Other Formats
Station Details ID: 086376 Name: FAWKNER BEACON Lat: -37.95 Lon: 144.93 Height: 17.0 m
Data from the previous 72 hours. | See also: Recent months at Fawkner Beacon
Date/Time
EST
Temp
°C
App
Temp
°C
Dew
Point
°C
Rel
Hum
%
Delta-T
°C
Wind Press
QNH
hPa
Press
MSL
hPa
Rain since
9am
mm
Dir  Spd
km/h
Gust
km/h
Spd
kts
Gust
kts
12/02:06am - - - - - WSW 35 44 19 24 - - -
12/02:00am - - - - - SW 35 46 19 25 - - -
12/01:41am - - - - - SW 37 52 20 28 - - -
12/01:36am - - - - - SSW 43 54 23 29 - - -
12/01:30am - - - - - SSW 41 52 22 28 - - -
12/01:00am - - - - - SSW 32 43 17 23 - - -
12/12:30am - - - - - SW 44 54 24 29 - - -
12/12:26am - - - - - WSW 43 54 23 29 - - -
12/12:14am - - - - - SSW 44 57 24 31 - - -
12/12:00am - - - - - S 41 52 22 28 - - -
 
Date/Time
EST
Temp
°C
App
Temp
°C
Dew
Point
°C
Rel
Hum
%
Delta-T
°C
Wind Press
QNH
hPa
Press
MSL
hPa
Rain since
9am
mm
Dir  Spd
km/h
Gust
km/h
Spd
kts
Gust
kts
11/11:30pm - - - - - S 39 48 21 26 - - -
11/11:00pm - - - - - SSW 39 48 21 26 - - -
11/10:30pm - - - - - SSW 39 46 21 25 - - -
11/10:01pm - - - - - SSW 39 61 21 33 - - -
11/10:00pm - - - - - SSW 41 61 22 33 - - -
11/09:56pm - - - - - SW 48 61 26 33 - - -
11/09:47pm - - - - - WSW 33 52 18 28 - - -
11/09:30pm - - - - - WSW 32 41 17 22 - - -
11/09:14pm - - - - - SSW 41 59 22 32 - - -
11/09:00pm - - - - - S 43 52 23 28 - - -
11/08:46pm - - - - - SW 39 50 21 27 - - -
11/08:30pm - - - - - SW 33 46 18 25 - - -
11/08:00pm - - - - - SW 43 54 23 29 - - -
11/07:30pm - - - - - SW 37 46 20 25 - - -
11/07:19pm - - - - - SSW 37 48 20 26 - - -
11/07:12pm - - - - - SSW 43 59 23 32 - - -
11/07:00pm - - - - - SW 43 52 23 28 - - -
11/06:30pm - - - - - SW 39 59 21 32 - - -
11/06:27pm - - - - - SW 41 59 22 32 - - -
11/06:03pm - - - - - SSW 50 67 27 36 - - -
11/06:00pm - - - - - S 52 67 28 36 - - -
11/05:49pm - - - - - SSW 46 63 25 34 - - -
11/05:32pm - - - - - SW 43 61 23 33 - - -
11/05:30pm - - - - - SW 39 52 21 28 - - -
11/05:00pm - - - - - SSW 48 59 26 32 - - -
11/04:47pm - - - - - SW 46 69 25 37 - - -
11/04:30pm - - - - - SW 56 70 30 38 - - -
11/04:00pm - - - - - SW 46 63 25 34 - - -
11/03:31pm - - - - - SSW 46 69 25 37 - - -
11/03:30pm - - - - - SW 46 61 25 33 - - -
11/03:00pm - - - - - SSW 59 80 32 43 - - -
11/02:30pm - - - - - SW 54 76 29 41 - - -
11/02:26pm - - - - - SW 50 69 27 37 - - -
11/02:00pm - - - - - SW 56 70 30 38 - - -
11/01:31pm - - - - - SW 61 80 33 43 - - -
11/01:30pm - - - - - SW 63 80 34 43 - - -
11/01:16pm - - - - - SSW 59 80 32 43 - - -
11/01:14pm - - - - - SW 54 72 29 39 - - -
11/01:00pm - - - - - SW 54 80 29 43 - - -
11/12:57pm - - - - - SW 61 82 33 44 - - -
11/12:51pm - - - - - SW 59 82 32 44 - - -
11/12:38pm - - - - - SSW 52 70 28 38 - - -
11/12:30pm - - - - - SSW 48 63 26 34 - - -
11/12:00pm - - - - - SSW 56 80 30 43 - - -
11/11:30am - - - - - SSW 56 82 30 44 - - -
11/11:26am - - - - - SW 54 82 29 44 - - -
11/11:24am - - - - - SW 52 82 28 44 - - -
11/11:02am - - - - - SW 44 65 24 35 - - -
11/11:00am - - - - - SW 41 54 22 29 - - -
11/10:30am - - - - - SW 46 59 25 32 - - -
11/10:00am - - - - - SW 52 69 28 37 - - -
11/09:58am - - - - - SW 50 69 27 37 - - -
11/09:56am - - - - - SW 48 63 26 34 - - -
11/09:40am - - - - - SW 46 67 25 36 - - -
11/09:32am - - - - - SW 56 78 30 42 - - -
11/09:30am - - - - - WSW 54 78 29 42 - - -
11/09:28am - - - - - WSW 52 78 28 42 - - -
11/09:26am - - - - - WSW 46 65 25 35 - - -
11/09:00am - - - - - WSW 41 50 22 27 - - -
11/08:36am - - - - - W 48 67 26 36 - - -
11/08:30am - - - - - W 54 67 29 36 - - -
11/08:00am - - - - - WSW 50 63 27 34 - - -
11/07:51am - - - - - SW 39 54 21 29 - - -
11/07:37am - - - - - SW 52 67 28 36 - - -
11/07:30am - - - - - WSW 43 63 23 34 - - -
11/07:28am - - - - - WSW 39 57 21 31 - - -
11/07:00am - - - - - W 52 65 28 35 - - -
11/06:30am - - - - - W 46 57 25 31 - - -
11/06:00am - - - - - W 46 57 25 31 - - -
11/05:34am - - - - - WSW 54 72 29 39 - - -
11/05:30am - - - - - WSW 56 72 30 39 - - -
11/05:00am - - - - - WSW 50 63 27 34 - - -
11/04:30am - - - - - WSW 54 65 29 35 - - -
11/04:00am - - - - - W 52 63 28 34 - - -
11/03:30am - - - - - W 46 54 25 29 - - -
11/03:00am - - - - - W 46 61 25 33 - - -
11/02:35am - - - - - WSW 48 69 26 37 - - -
11/02:30am - - - - - W 46 57 25 31 - - -
11/02:00am - - - - - W 46 54 25 29 - - -
11/01:30am - - - - - WSW 50 70 27 38 - - -
11/01:19am - - - - - W 46 65 25 35 - - -
11/01:00am - - - - - W 41 48 22 26 - - -
11/12:30am - - - - - W 43 52 23 28 - - -
11/12:00am - - - - - W 46 54 25 29 - - -
 
Date/Time
EST
Temp
°C
App
Temp
°C
Dew
Point
°C
Rel
Hum
%
Delta-T
°C
Wind Press
QNH
hPa
Press
MSL
hPa
Rain since
9am
mm
Dir  Spd
km/h
Gust
km/h
Spd
kts
Gust
kts
10/11:30pm - - - - - W 39 50 21 27 - - -
10/11:00pm - - - - - W 37 48 20 26 - - -
10/10:30pm - - - - - WNW 44 57 24 31 - - -
10/10:06pm - - - - - W 43 61 23 33 - - -
10/10:00pm - - - - - W 44 54 24 29 - - -
10/09:30pm - - - - - W 41 48 22 26 - - -
10/09:00pm - - - - - W 41 52 22 28 - - -
10/08:30pm - - - - - W 37 50 20 27 - - -
10/08:00pm - - - - - W 37 46 20 25 - - -
10/07:30pm - - - - - W 39 50 21 27 - - -
10/07:00pm - - - - - WSW 46 57 25 31 - - -
10/06:30pm - - - - - W 54 69 29 37 - - -
10/06:12pm - - - - - SW 57 82 31 44 - - -
10/06:06pm - - - - - WSW 59 87 32 47 - - -
10/06:02pm - - - - - W 48 87 26 47 - - -
10/06:00pm - - - - - W 41 87 22 47 - - -
10/05:30pm - - - - - W 41 50 22 27 - - -
10/05:00pm - - - - - WSW 48 59 26 32 - - -
10/04:32pm - - - - - WSW 54 76 29 41 - - -
10/04:30pm - - - - - W 52 65 28 35 - - -
10/04:00pm - - - - - WSW 46 67 25 36 - - -
10/03:59pm - - - - - WSW 44 65 24 35 - - -
10/03:30pm - - - - - WSW 48 61 26 33 - - -
10/03:00pm - - - - - WSW 52 65 28 35 - - -
10/02:31pm - - - - - WSW 59 80 32 43 - - -
10/02:30pm - - - - - WSW 57 72 31 39 - - -
10/02:00pm - - - - - WSW 54 67 29 36 - - -
10/01:30pm - - - - - WSW 46 59 25 32 - - -
10/01:00pm - - - - - WSW 46 59 25 32 - - -
10/12:30pm - - - - - WSW 46 59 25 32 - - -
10/12:00pm - - - - - WSW 43 52 23 28 - - -
10/11:30am - - - - - WSW 44 57 24 31 - - -
10/11:00am - - - - - W 44 52 24 28 - - -
10/10:30am - - - - - W 43 59 23 32 - - -
10/10:17am - - - - - W 43 61 23 33 - - -
10/10:00am - - - - - WNW 26 39 14 21 - - -
10/09:30am - - - - - WNW 33 43 18 23 - - -
10/09:00am - - - - - WNW 39 44 21 24 - - -
10/08:30am - - - - - WNW 37 46 20 25 - - -
10/08:00am - - - - - NW 32 39 17 21 - - -
10/07:30am - - - - - WNW 37 46 20 25 - - -
10/07:00am - - - - - NW 33 41 18 22 - - -
10/06:30am - - - - - NW 32 39 17 21 - - -
10/06:00am - - - - - WNW 30 35 16 19 - - -
10/05:30am - - - - - WNW 28 33 15 18 - - -
10/05:00am - - - - - WNW 24 33 13 18 - - -
10/04:30am - - - - - W 30 43 16 23 - - -
10/04:00am - - - - - W 28 33 15 18 - - -
10/03:30am - - - - - W 28 33 15 18 - - -
10/03:00am - - - - - W 26 32 14 17 - - -
10/02:30am - - - - - W 28 35 15 19 - - -
10/02:00am - - - - - W 28 35 15 19 - - -
10/01:30am - - - - - W 22 26 12 14 - - -
10/01:00am - - - - - W 24 32 13 17 - - -
10/12:30am - - - - - W 20 24 11 13 - - -
10/12:00am - - - - - W 22 28 12 15 - - -
 
Date/Time
EST
Temp
°C
App
Temp
°C
Dew
Point
°C
Rel
Hum
%
Delta-T
°C
Wind Press
QNH
hPa
Press
MSL
hPa
Rain since
9am
mm
Dir  Spd
km/h
Gust
km/h
Spd
kts
Gust
kts
09/11:30pm - - - - - W 24 28 13 15 - - -
09/11:00pm - - - - - W 26 30 14 16 - - -
09/10:30pm - - - - - W 24 30 13 16 - - -
09/10:00pm - - - - - W 22 32 12 17 - - -
09/09:30pm - - - - - SW 20 24 11 13 - - -
09/09:00pm - - - - - SSW 20 24 11 13 - - -
09/08:30pm - - - - - SSW 20 26 11 14 - - -
09/08:00pm - - - - - SSW 20 26 11 14 - - -
09/07:30pm - - - - - SSW 20 28 11 15 - - -
09/07:00pm - - - - - SSW 22 28 12 15 - - -
09/06:30pm - - - - - SSW 22 30 12 16 - - -
09/06:00pm - - - - - S 26 33 14 18 - - -
09/05:30pm - - - - - S 26 32 14 17 - - -
09/05:00pm - - - - - S 26 33 14 18 - - -
09/04:30pm - - - - - S 28 35 15 19 - - -
09/04:00pm - - - - - S 28 33 15 18 - - -
09/03:30pm - - - - - S 26 32 14 17 - - -
09/03:00pm - - - - - SSW 26 33 14 18 - - -
09/02:30pm - - - - - SSW 35 43 19 23 - - -
09/02:00pm - - - - - SSW 35 43 19 23 - - -
09/01:30pm - - - - - SSW 33 44 18 24 - - -
09/01:00pm - - - - - SW 33 46 18 25 - - -
09/12:30pm - - - - - SSW 32 43 17 23 - - -
09/12:00pm - - - - - SW 26 32 14 17 - - -
09/11:30am - - - - - SW 33 48 18 26 - - -
09/11:00am - - - - - SW 32 39 17 21 - - -
09/10:30am - - - - - SW 28 39 15 21 - - -
09/10:00am - - - - - WSW 26 32 14 17 - - -
09/09:30am - - - - - WSW 26 33 14 18 - - -
09/09:00am - - - - - WSW 28 35 15 19 - - -
09/08:30am - - - - - W 28 33 15 18 - - -
09/08:00am - - - - - W 30 35 16 19 - - -
09/07:30am - - - - - SW 35 46 19 25 - - -
09/07:00am - - - - - SW 39 46 21 25 - - -
09/06:30am - - - - - SW 41 46 22 25 - - -
09/06:00am - - - - - SW 41 48 22 26 - - -
09/05:30am - - - - - SSW 41 48 22 26 - - -
09/05:00am - - - - - SW 43 52 23 28 - - -
09/04:30am - - - - - SW 44 52 24 28 - - -
09/04:00am - - - - - SSW 44 50 24 27 - - -
09/03:30am - - - - - SSW 48 57 26 31 - - -
09/03:00am - - - - - SSW 46 54 25 29 - - -
09/02:30am - - - - - SSW 33 44 18 24 - - -

Latest Capital City Observations: Canberra | Sydney | Melbourne | Brisbane | Adelaide | Perth | Hobart | Darwin

Other formats

Comma delimited format used in spreadsheet applications
http://www.bom.gov.au/fwo/IDV60901/IDV60901.95872.axf

JavaScript Object Notation format (JSON) in row-major order
http://www.bom.gov.au/fwo/IDV60901/IDV60901.95872.json

Data quality

Most of these data are generated automatically and are frequently updated. Quality checks on data are not normally performed. It is possible for incorrect values to appear. Refer to information at About Latest Weather Observations and please check the disclaimer before using these data.